sensor_id;sensor_type;location;lat;lon;timestamp;temperature;humidity
61841;DHT22;47773;53.174;6.614;2022-09-12T00:01:14;15.70;99.90
61841;DHT22;47773;53.174;6.614;2022-09-12T00:03:40;15.70;99.90
61841;DHT22;47773;53.174;6.614;2022-09-12T00:06:20;15.70;99.90
61841;DHT22;47773;53.174;6.614;2022-09-12T00:08:46;15.70;99.90
61841;DHT22;47773;53.174;6.614;2022-09-12T00:11:13;15.70;99.90
61841;DHT22;47773;53.174;6.614;2022-09-12T00:13:39;15.70;99.90
61841;DHT22;47773;53.174;6.614;2022-09-12T00:16:05;15.60;99.90
61841;DHT22;47773;53.174;6.614;2022-09-12T00:18:32;15.60;99.90
61841;DHT22;47773;53.174;6.614;2022-09-12T00:21:02;15.60;99.90
61841;DHT22;47773;53.174;6.614;2022-09-12T00:23:30;15.60;99.90
61841;DHT22;47773;53.174;6.614;2022-09-12T00:25:55;15.60;99.90
61841;DHT22;47773;53.174;6.614;2022-09-12T00:28:21;15.50;99.90
61841;DHT22;47773;53.174;6.614;2022-09-12T00:30:47;15.50;99.90
61841;DHT22;47773;53.174;6.614;2022-09-12T00:33:15;15.50;99.90
61841;DHT22;47773;53.174;6.614;2022-09-12T00:35:46;15.50;99.90
61841;DHT22;47773;53.174;6.614;2022-09-12T00:38:14;15.40;99.90
61841;DHT22;47773;53.174;6.614;2022-09-12T00:40:41;15.40;99.90
61841;DHT22;47773;53.174;6.614;2022-09-12T00:43:34;15.40;99.90
61841;DHT22;47773;53.174;6.614;2022-09-12T00:46:05;15.40;99.90
61841;DHT22;47773;53.174;6.614;2022-09-12T00:48:36;15.40;99.90
61841;DHT22;47773;53.174;6.614;2022-09-12T00:51:04;15.30;99.90
61841;DHT22;47773;53.174;6.614;2022-09-12T00:53:30;15.30;99.90
61841;DHT22;47773;53.174;6.614;2022-09-12T00:55:57;15.30;99.90
61841;DHT22;47773;53.174;6.614;2022-09-12T00:58:33;15.30;99.90
61841;DHT22;47773;53.174;6.614;2022-09-12T01:01:01;15.30;99.90
61841;DHT22;47773;53.174;6.614;2022-09-12T01:03:27;15.20;99.90
61841;DHT22;47773;53.174;6.614;2022-09-12T01:08:38;15.20;99.90
61841;DHT22;47773;53.174;6.614;2022-09-12T01:11:06;15.20;99.90
61841;DHT22;47773;53.174;6.614;2022-09-12T01:13:36;15.20;99.90
61841;DHT22;47773;53.174;6.614;2022-09-12T01:16:05;15.20;99.90
61841;DHT22;47773;53.174;6.614;2022-09-12T01:24:47;15.10;99.90
61841;DHT22;47773;53.174;6.614;2022-09-12T01:31:10;15.10;99.90
61841;DHT22;47773;53.174;6.614;2022-09-12T01:33:16;15.10;99.90
61841;DHT22;47773;53.174;6.614;2022-09-12T01:38:33;15.00;99.90
61841;DHT22;47773;53.174;6.614;2022-09-12T01:41:13;15.00;99.90
61841;DHT22;47773;53.174;6.614;2022-09-12T01:43:48;15.00;99.90
61841;DHT22;47773;53.174;6.614;2022-09-12T01:49:24;14.90;99.90
61841;DHT22;47773;53.174;6.614;2022-09-12T01:52:11;14.90;99.90
61841;DHT22;47773;53.174;6.614;2022-09-12T01:54:42;14.90;99.90
61841;DHT22;47773;53.174;6.614;2022-09-12T01:57:15;14.90;99.90
61841;DHT22;47773;53.174;6.614;2022-09-12T01:59:44;14.90;99.90
61841;DHT22;47773;53.174;6.614;2022-09-12T02:02:15;14.80;99.90
61841;DHT22;47773;53.174;6.614;2022-09-12T02:04:52;14.80;99.90
61841;DHT22;47773;53.174;6.614;2022-09-12T02:07:38;14.80;99.90
61841;DHT22;47773;53.174;6.614;2022-09-12T02:10:14;14.80;99.90
61841;DHT22;47773;53.174;6.614;2022-09-12T02:13:06;14.80;99.90
61841;DHT22;47773;53.174;6.614;2022-09-12T02:15:37;14.80;99.90
61841;DHT22;47773;53.174;6.614;2022-09-12T02:18:05;14.70;99.90
61841;DHT22;47773;53.174;6.614;2022-09-12T02:20:36;14.70;99.90
61841;DHT22;47773;53.174;6.614;2022-09-12T02:23:05;14.70;99.90
61841;DHT22;47773;53.174;6.614;2022-09-12T02:25:33;14.70;99.90
61841;DHT22;47773;53.174;6.614;2022-09-12T02:28:20;14.70;99.90
61841;DHT22;47773;53.174;6.614;2022-09-12T02:31:00;14.70;99.90
61841;DHT22;47773;53.174;6.614;2022-09-12T02:33:58;14.60;99.90
61841;DHT22;47773;53.174;6.614;2022-09-12T02:36:38;14.60;99.90
61841;DHT22;47773;53.174;6.614;2022-09-12T02:39:08;14.60;99.90
61841;DHT22;47773;53.174;6.614;2022-09-12T02:41:34;14.60;99.90
61841;DHT22;47773;53.174;6.614;2022-09-12T02:44:00;14.60;99.90
61841;DHT22;47773;53.174;6.614;2022-09-12T02:46:38;14.60;99.90
61841;DHT22;47773;53.174;6.614;2022-09-12T02:49:05;14.60;99.90
61841;DHT22;47773;53.174;6.614;2022-09-12T02:51:30;14.50;99.90
61841;DHT22;47773;53.174;6.614;2022-09-12T02:53:57;14.50;99.90
61841;DHT22;47773;53.174;6.614;2022-09-12T02:56:26;14.50;99.90
61841;DHT22;47773;53.174;6.614;2022-09-12T02:58:57;14.50;99.90
61841;DHT22;47773;53.174;6.614;2022-09-12T03:01:43;14.50;99.90
61841;DHT22;47773;53.174;6.614;2022-09-12T03:10:08;14.50;99.90
61841;DHT22;47773;53.174;6.614;2022-09-12T03:24:20;14.40;99.90
61841;DHT22;47773;53.174;6.614;2022-09-12T03:26:59;14.40;99.90
61841;DHT22;47773;53.174;6.614;2022-09-12T03:29:27;14.40;99.90
61841;DHT22;47773;53.174;6.614;2022-09-12T03:31:56;14.30;99.90
61841;DHT22;47773;53.174;6.614;2022-09-12T03:34:23;14.40;99.90
61841;DHT22;47773;53.174;6.614;2022-09-12T03:36:50;14.40;99.90
61841;DHT22;47773;53.174;6.614;2022-09-12T03:39:16;14.40;99.90
61841;DHT22;47773;53.174;6.614;2022-09-12T03:41:42;14.40;99.90
61841;DHT22;47773;53.174;6.614;2022-09-12T03:44:08;14.40;99.90
61841;DHT22;47773;53.174;6.614;2022-09-12T03:46:34;14.30;99.90
61841;DHT22;47773;53.174;6.614;2022-09-12T03:49:00;14.30;99.90
61841;DHT22;47773;53.174;6.614;2022-09-12T03:51:25;14.30;99.90
61841;DHT22;47773;53.174;6.614;2022-09-12T03:53:51;14.30;99.90
61841;DHT22;47773;53.174;6.614;2022-09-12T03:56:17;14.30;99.90
61841;DHT22;47773;53.174;6.614;2022-09-12T03:58:43;14.30;99.90
61841;DHT22;47773;53.174;6.614;2022-09-12T04:01:19;14.30;99.90
61841;DHT22;47773;53.174;6.614;2022-09-12T04:03:48;14.30;99.90
61841;DHT22;47773;53.174;6.614;2022-09-12T04:06:16;14.30;99.90
61841;DHT22;47773;53.174;6.614;2022-09-12T04:08:43;14.30;99.90
61841;DHT22;47773;53.174;6.614;2022-09-12T04:11:13;14.30;99.90
61841;DHT22;47773;53.174;6.614;2022-09-12T04:13:40;14.30;99.90
61841;DHT22;47773;53.174;6.614;2022-09-12T04:16:07;14.30;99.90
61841;DHT22;47773;53.174;6.614;2022-09-12T04:18:33;14.20;99.90
61841;DHT22;47773;53.174;6.614;2022-09-12T04:21:04;14.20;99.90
61841;DHT22;47773;53.174;6.614;2022-09-12T04:23:30;14.20;99.90
61841;DHT22;47773;53.174;6.614;2022-09-12T04:25:57;14.20;99.90
61841;DHT22;47773;53.174;6.614;2022-09-12T04:28:24;14.20;99.90
61841;DHT22;47773;53.174;6.614;2022-09-12T04:30:50;14.20;99.90
61841;DHT22;47773;53.174;6.614;2022-09-12T04:33:16;14.20;99.90
61841;DHT22;47773;53.174;6.614;2022-09-12T04:35:42;14.20;99.90
61841;DHT22;47773;53.174;6.614;2022-09-12T04:38:10;14.20;99.90
61841;DHT22;47773;53.174;6.614;2022-09-12T04:40:36;14.20;99.90
61841;DHT22;47773;53.174;6.614;2022-09-12T04:43:02;14.20;99.90
61841;DHT22;47773;53.174;6.614;2022-09-12T04:45:28;14.20;99.90
61841;DHT22;47773;53.174;6.614;2022-09-12T04:47:55;14.20;99.90
61841;DHT22;47773;53.174;6.614;2022-09-12T04:50:21;14.20;99.90
61841;DHT22;47773;53.174;6.614;2022-09-12T04:52:50;14.20;99.90
61841;DHT22;47773;53.174;6.614;2022-09-12T04:55:17;14.20;99.90
61841;DHT22;47773;53.174;6.614;2022-09-12T04:57:43;14.20;99.90
61841;DHT22;47773;53.174;6.614;2022-09-12T05:00:09;14.20;99.90
61841;DHT22;47773;53.174;6.614;2022-09-12T05:02:42;14.20;99.90
61841;DHT22;47773;53.174;6.614;2022-09-12T05:05:08;14.20;99.90
61841;DHT22;47773;53.174;6.614;2022-09-12T05:07:34;14.30;99.90
61841;DHT22;47773;53.174;6.614;2022-09-12T05:10:00;14.30;99.90
61841;DHT22;47773;53.174;6.614;2022-09-12T05:12:26;14.30;99.90
61841;DHT22;47773;53.174;6.614;2022-09-12T05:14:52;14.30;99.90
61841;DHT22;47773;53.174;6.614;2022-09-12T05:17:18;14.40;99.90
61841;DHT22;47773;53.174;6.614;2022-09-12T05:19:43;14.40;99.90
61841;DHT22;47773;53.174;6.614;2022-09-12T05:22:09;14.40;99.90
61841;DHT22;47773;53.174;6.614;2022-09-12T05:24:35;14.50;99.90
61841;DHT22;47773;53.174;6.614;2022-09-12T05:27:02;14.50;99.90
61841;DHT22;47773;53.174;6.614;2022-09-12T05:29:29;14.50;99.90
61841;DHT22;47773;53.174;6.614;2022-09-12T05:31:55;14.50;99.90
61841;DHT22;47773;53.174;6.614;2022-09-12T05:34:20;14.60;99.90
61841;DHT22;47773;53.174;6.614;2022-09-12T05:36:46;14.60;99.90
61841;DHT22;47773;53.174;6.614;2022-09-12T05:39:12;14.60;99.90
61841;DHT22;47773;53.174;6.614;2022-09-12T05:41:38;14.60;99.90
61841;DHT22;47773;53.174;6.614;2022-09-12T05:44:05;14.70;99.90
61841;DHT22;47773;53.174;6.614;2022-09-12T05:46:39;14.70;99.90
61841;DHT22;47773;53.174;6.614;2022-09-12T05:49:08;14.70;99.90
61841;DHT22;47773;53.174;6.614;2022-09-12T05:51:38;14.70;99.90
61841;DHT22;47773;53.174;6.614;2022-09-12T05:54:07;14.80;99.90
61841;DHT22;47773;53.174;6.614;2022-09-12T05:56:36;14.80;99.90
61841;DHT22;47773;53.174;6.614;2022-09-12T05:59:25;14.80;99.90
61841;DHT22;47773;53.174;6.614;2022-09-12T06:01:50;14.80;99.90
61841;DHT22;47773;53.174;6.614;2022-09-12T06:04:16;14.80;99.90
61841;DHT22;47773;53.174;6.614;2022-09-12T06:06:43;14.80;99.90
61841;DHT22;47773;53.174;6.614;2022-09-12T06:09:10;14.80;99.90
61841;DHT22;47773;53.174;6.614;2022-09-12T06:11:38;14.80;99.90
61841;DHT22;47773;53.174;6.614;2022-09-12T06:14:06;14.90;99.90
61841;DHT22;47773;53.174;6.614;2022-09-12T06:16:33;14.90;99.90
61841;DHT22;47773;53.174;6.614;2022-09-12T06:19:00;14.90;99.90
61841;DHT22;47773;53.174;6.614;2022-09-12T06:21:27;15.00;99.90
61841;DHT22;47773;53.174;6.614;2022-09-12T06:23:55;15.00;99.90
61841;DHT22;47773;53.174;6.614;2022-09-12T06:26:21;15.00;99.90
61841;DHT22;47773;53.174;6.614;2022-09-12T06:28:50;15.00;99.90
61841;DHT22;47773;53.174;6.614;2022-09-12T06:31:21;15.10;99.90
61841;DHT22;47773;53.174;6.614;2022-09-12T06:33:49;15.10;99.90
61841;DHT22;47773;53.174;6.614;2022-09-12T06:36:20;15.10;99.90
61841;DHT22;47773;53.174;6.614;2022-09-12T06:38:47;15.10;99.90
61841;DHT22;47773;53.174;6.614;2022-09-12T06:41:13;15.10;99.90
61841;DHT22;47773;53.174;6.614;2022-09-12T06:43:40;15.20;99.90
61841;DHT22;47773;53.174;6.614;2022-09-12T06:46:07;15.20;99.90
61841;DHT22;47773;53.174;6.614;2022-09-12T06:48:33;15.30;99.90
61841;DHT22;47773;53.174;6.614;2022-09-12T06:51:04;15.30;99.90
61841;DHT22;47773;53.174;6.614;2022-09-12T06:53:32;15.30;99.90
61841;DHT22;47773;53.174;6.614;2022-09-12T06:56:03;15.30;99.90
61841;DHT22;47773;53.174;6.614;2022-09-12T06:58:30;15.30;99.90
61841;DHT22;47773;53.174;6.614;2022-09-12T07:01:09;15.40;99.90
61841;DHT22;47773;53.174;6.614;2022-09-12T07:03:36;15.40;99.90
61841;DHT22;47773;53.174;6.614;2022-09-12T07:08:33;15.40;99.90
61841;DHT22;47773;53.174;6.614;2022-09-12T07:13:36;15.50;99.90
61841;DHT22;47773;53.174;6.614;2022-09-12T07:16:03;15.50;99.90
61841;DHT22;47773;53.174;6.614;2022-09-12T07:18:30;15.60;99.90
61841;DHT22;47773;53.174;6.614;2022-09-12T07:20:58;15.60;99.90
61841;DHT22;47773;53.174;6.614;2022-09-12T07:23:23;15.70;99.90
61841;DHT22;47773;53.174;6.614;2022-09-12T07:25:53;15.70;99.90
61841;DHT22;47773;53.174;6.614;2022-09-12T07:28:25;15.70;99.90
61841;DHT22;47773;53.174;6.614;2022-09-12T07:30:51;15.80;99.90
61841;DHT22;47773;53.174;6.614;2022-09-12T07:33:22;15.80;99.90
61841;DHT22;47773;53.174;6.614;2022-09-12T07:35:48;15.90;99.90
61841;DHT22;47773;53.174;6.614;2022-09-12T07:38:14;15.90;99.90
61841;DHT22;47773;53.174;6.614;2022-09-12T07:40:41;16.00;99.90
61841;DHT22;47773;53.174;6.614;2022-09-12T07:43:07;16.10;99.90
61841;DHT22;47773;53.174;6.614;2022-09-12T07:45:32;16.10;99.90
61841;DHT22;47773;53.174;6.614;2022-09-12T07:47:58;16.20;99.90
61841;DHT22;47773;53.174;6.614;2022-09-12T07:50:24;16.20;99.90
61841;DHT22;47773;53.174;6.614;2022-09-12T07:52:52;16.30;99.90
61841;DHT22;47773;53.174;6.614;2022-09-12T07:55:18;16.30;99.90
61841;DHT22;47773;53.174;6.614;2022-09-12T07:57:43;16.30;99.90
61841;DHT22;47773;53.174;6.614;2022-09-12T08:00:09;16.40;99.90
61841;DHT22;47773;53.174;6.614;2022-09-12T08:02:35;16.40;99.90
61841;DHT22;47773;53.174;6.614;2022-09-12T08:05:01;16.40;99.90
61841;DHT22;47773;53.174;6.614;2022-09-12T08:07:27;16.50;99.90
61841;DHT22;47773;53.174;6.614;2022-09-12T08:09:52;16.50;99.90
61841;DHT22;47773;53.174;6.614;2022-09-12T08:12:18;16.60;99.90
61841;DHT22;47773;53.174;6.614;2022-09-12T08:14:44;16.60;99.90
61841;DHT22;47773;53.174;6.614;2022-09-12T08:17:10;16.70;99.90
61841;DHT22;47773;53.174;6.614;2022-09-12T08:19:36;16.70;99.90
61841;DHT22;47773;53.174;6.614;2022-09-12T08:22:03;16.80;99.90
61841;DHT22;47773;53.174;6.614;2022-09-12T08:24:29;16.80;99.90
61841;DHT22;47773;53.174;6.614;2022-09-12T08:26:56;16.90;99.90
61841;DHT22;47773;53.174;6.614;2022-09-12T08:29:22;16.90;99.90
61841;DHT22;47773;53.174;6.614;2022-09-12T08:31:47;17.00;99.90
61841;DHT22;47773;53.174;6.614;2022-09-12T08:34:13;17.00;99.90
61841;DHT22;47773;53.174;6.614;2022-09-12T08:36:41;17.10;99.90
61841;DHT22;47773;53.174;6.614;2022-09-12T08:39:07;17.20;99.90
61841;DHT22;47773;53.174;6.614;2022-09-12T08:41:42;17.20;99.90
61841;DHT22;47773;53.174;6.614;2022-09-12T08:47:10;17.40;99.90
61841;DHT22;47773;53.174;6.614;2022-09-12T08:55:34;17.70;99.90
61841;DHT22;47773;53.174;6.614;2022-09-12T08:58:27;17.70;99.90
61841;DHT22;47773;53.174;6.614;2022-09-12T09:17:48;18.10;99.90
61841;DHT22;47773;53.174;6.614;2022-09-12T09:26:36;18.40;99.90
61841;DHT22;47773;53.174;6.614;2022-09-12T09:31:18;18.80;99.90
61841;DHT22;47773;53.174;6.614;2022-09-12T09:33:48;19.00;99.90
61841;DHT22;47773;53.174;6.614;2022-09-12T09:38:47;19.20;99.90
61841;DHT22;47773;53.174;6.614;2022-09-12T09:41:35;19.20;99.90
61841;DHT22;47773;53.174;6.614;2022-09-12T09:44:04;19.40;99.90
61841;DHT22;47773;53.174;6.614;2022-09-12T09:46:31;19.50;99.90
61841;DHT22;47773;53.174;6.614;2022-09-12T09:48:59;19.70;99.90
61841;DHT22;47773;53.174;6.614;2022-09-12T09:51:28;19.80;99.90
61841;DHT22;47773;53.174;6.614;2022-09-12T09:54:09;20.00;99.90
61841;DHT22;47773;53.174;6.614;2022-09-12T09:56:39;20.30;99.90
61841;DHT22;47773;53.174;6.614;2022-09-12T09:59:19;20.60;99.90
61841;DHT22;47773;53.174;6.614;2022-09-12T10:02:18;20.70;99.90
61841;DHT22;47773;53.174;6.614;2022-09-12T10:04:55;20.80;99.90
61841;DHT22;47773;53.174;6.614;2022-09-12T10:07:22;20.90;99.90
61841;DHT22;47773;53.174;6.614;2022-09-12T10:10:14;21.10;99.90
61841;DHT22;47773;53.174;6.614;2022-09-12T10:12:40;21.30;99.90
61841;DHT22;47773;53.174;6.614;2022-09-12T10:15:22;21.70;99.90
61841;DHT22;47773;53.174;6.614;2022-09-12T10:17:49;21.90;99.90
61841;DHT22;47773;53.174;6.614;2022-09-12T10:22:58;22.20;99.90
61841;DHT22;47773;53.174;6.614;2022-09-12T10:25:25;22.30;99.90
61841;DHT22;47773;53.174;6.614;2022-09-12T10:27:58;22.50;99.90
61841;DHT22;47773;53.174;6.614;2022-09-12T10:30:26;22.60;99.90
61841;DHT22;47773;53.174;6.614;2022-09-12T10:33:03;22.50;99.90
61841;DHT22;47773;53.174;6.614;2022-09-12T10:35:42;22.50;99.90
61841;DHT22;47773;53.174;6.614;2022-09-12T10:38:20;22.60;99.90
61841;DHT22;47773;53.174;6.614;2022-09-12T10:41:04;22.80;99.90
61841;DHT22;47773;53.174;6.614;2022-09-12T10:43:35;22.90;99.90
61841;DHT22;47773;53.174;6.614;2022-09-12T10:48:43;22.90;99.90
61841;DHT22;47773;53.174;6.614;2022-09-12T10:53:52;23.10;99.90
61841;DHT22;47773;53.174;6.614;2022-09-12T10:56:24;23.20;99.90
61841;DHT22;47773;53.174;6.614;2022-09-12T10:59:07;23.30;99.90
61841;DHT22;47773;53.174;6.614;2022-09-12T11:01:41;23.40;99.90
61841;DHT22;47773;53.174;6.614;2022-09-12T11:09:45;23.40;99.90
61841;DHT22;47773;53.174;6.614;2022-09-12T11:21:02;23.80;99.90
61841;DHT22;47773;53.174;6.614;2022-09-12T11:24:07;23.80;99.90
61841;DHT22;47773;53.174;6.614;2022-09-12T11:26:49;23.80;99.90
61841;DHT22;47773;53.174;6.614;2022-09-12T11:29:30;23.70;99.90
61841;DHT22;47773;53.174;6.614;2022-09-12T11:32:04;23.70;98.40
61841;DHT22;47773;53.174;6.614;2022-09-12T11:37:23;23.80;99.50
61841;DHT22;47773;53.174;6.614;2022-09-12T11:39:53;23.80;98.80
61841;DHT22;47773;53.174;6.614;2022-09-12T11:42:34;23.80;99.00
61841;DHT22;47773;53.174;6.614;2022-09-12T11:45:15;23.70;96.00
61841;DHT22;47773;53.174;6.614;2022-09-12T11:47:46;23.70;98.50
61841;DHT22;47773;53.174;6.614;2022-09-12T11:50:30;23.80;98.50
61841;DHT22;47773;53.174;6.614;2022-09-12T11:53:15;23.80;95.60
61841;DHT22;47773;53.174;6.614;2022-09-12T11:56:19;23.80;93.40
61841;DHT22;47773;53.174;6.614;2022-09-12T11:58:53;23.60;89.40
61841;DHT22;47773;53.174;6.614;2022-09-12T12:01:25;23.60;93.00
61841;DHT22;47773;53.174;6.614;2022-09-12T12:03:52;23.70;94.50
61841;DHT22;47773;53.174;6.614;2022-09-12T12:06:30;23.60;95.30
61841;DHT22;47773;53.174;6.614;2022-09-12T12:08:56;23.60;93.10
61841;DHT22;47773;53.174;6.614;2022-09-12T12:11:36;23.70;95.20
61841;DHT22;47773;53.174;6.614;2022-09-12T12:14:06;23.80;91.00
61841;DHT22;47773;53.174;6.614;2022-09-12T12:16:37;23.80;94.20
61841;DHT22;47773;53.174;6.614;2022-09-12T12:21:48;23.60;95.40
61841;DHT22;47773;53.174;6.614;2022-09-12T12:24:23;23.50;94.40
61841;DHT22;47773;53.174;6.614;2022-09-12T12:36:52;23.30;94.40
61841;DHT22;47773;53.174;6.614;2022-09-12T12:41:59;23.20;91.60
61841;DHT22;47773;53.174;6.614;2022-09-12T12:49:52;23.30;92.80
61841;DHT22;47773;53.174;6.614;2022-09-12T12:52:19;23.40;92.00
61841;DHT22;47773;53.174;6.614;2022-09-12T12:57:23;23.60;92.20
61841;DHT22;47773;53.174;6.614;2022-09-12T12:59:51;23.70;87.40
61841;DHT22;47773;53.174;6.614;2022-09-12T13:02:25;23.70;90.10
61841;DHT22;47773;53.174;6.614;2022-09-12T13:04:51;23.70;85.10
61841;DHT22;47773;53.174;6.614;2022-09-12T13:07:28;23.60;90.40
61841;DHT22;47773;53.174;6.614;2022-09-12T13:09:54;23.60;85.60
61841;DHT22;47773;53.174;6.614;2022-09-12T13:12:28;23.50;88.50
61841;DHT22;47773;53.174;6.614;2022-09-12T13:14:57;23.50;85.10
61841;DHT22;47773;53.174;6.614;2022-09-12T13:17:31;23.50;83.90
61841;DHT22;47773;53.174;6.614;2022-09-12T13:20:15;23.50;81.60
61841;DHT22;47773;53.174;6.614;2022-09-12T13:22:44;23.50;83.00
61841;DHT22;47773;53.174;6.614;2022-09-12T13:25:30;23.50;83.70
61841;DHT22;47773;53.174;6.614;2022-09-12T13:30:26;23.50;79.30
61841;DHT22;47773;53.174;6.614;2022-09-12T13:32:54;23.50;79.20
61841;DHT22;47773;53.174;6.614;2022-09-12T13:35:55;23.40;78.80
61841;DHT22;47773;53.174;6.614;2022-09-12T13:38:33;23.40;74.70
61841;DHT22;47773;53.174;6.614;2022-09-12T13:43:41;23.40;79.40
61841;DHT22;47773;53.174;6.614;2022-09-12T13:46:09;23.40;80.80
61841;DHT22;47773;53.174;6.614;2022-09-12T13:48:38;23.30;81.60
61841;DHT22;47773;53.174;6.614;2022-09-12T13:51:04;23.30;81.30
61841;DHT22;47773;53.174;6.614;2022-09-12T13:53:42;23.30;80.70
61841;DHT22;47773;53.174;6.614;2022-09-12T13:56:16;23.30;80.80
61841;DHT22;47773;53.174;6.614;2022-09-12T13:58:51;23.30;81.30
61841;DHT22;47773;53.174;6.614;2022-09-12T14:01:19;23.30;78.20
61841;DHT22;47773;53.174;6.614;2022-09-12T14:03:55;23.30;81.20
61841;DHT22;47773;53.174;6.614;2022-09-12T14:06:48;23.30;78.90
61841;DHT22;47773;53.174;6.614;2022-09-12T14:09:26;23.20;81.60
61841;DHT22;47773;53.174;6.614;2022-09-12T14:11:54;23.10;78.40
61841;DHT22;47773;53.174;6.614;2022-09-12T14:14:35;23.10;82.00
61841;DHT22;47773;53.174;6.614;2022-09-12T14:17:30;23.10;80.90
61841;DHT22;47773;53.174;6.614;2022-09-12T14:20:01;23.10;80.20
61841;DHT22;47773;53.174;6.614;2022-09-12T14:22:28;23.10;82.30
61841;DHT22;47773;53.174;6.614;2022-09-12T14:24:55;23.10;82.80
61841;DHT22;47773;53.174;6.614;2022-09-12T14:27:39;23.10;82.30
61841;DHT22;47773;53.174;6.614;2022-09-12T14:35:28;23.10;79.80
61841;DHT22;47773;53.174;6.614;2022-09-12T14:37:55;23.00;76.30
61841;DHT22;47773;53.174;6.614;2022-09-12T14:40:22;23.00;81.90
61841;DHT22;47773;53.174;6.614;2022-09-12T14:42:50;22.90;80.60
61841;DHT22;47773;53.174;6.614;2022-09-12T14:45:37;22.90;83.30
61841;DHT22;47773;53.174;6.614;2022-09-12T14:48:03;22.90;82.30
61841;DHT22;47773;53.174;6.614;2022-09-12T14:50:33;22.90;84.40
61841;DHT22;47773;53.174;6.614;2022-09-12T14:55:45;22.90;87.10
61841;DHT22;47773;53.174;6.614;2022-09-12T15:01:00;22.90;91.00
61841;DHT22;47773;53.174;6.614;2022-09-12T15:03:56;22.90;91.00
61841;DHT22;47773;53.174;6.614;2022-09-12T15:06:33;23.00;92.00
61841;DHT22;47773;53.174;6.614;2022-09-12T15:09:11;23.00;92.20
61841;DHT22;47773;53.174;6.614;2022-09-12T15:11:37;23.00;92.80
61841;DHT22;47773;53.174;6.614;2022-09-12T15:14:12;23.00;93.20
61841;DHT22;47773;53.174;6.614;2022-09-12T15:16:38;23.00;93.80
61841;DHT22;47773;53.174;6.614;2022-09-12T15:19:03;23.00;94.40
61841;DHT22;47773;53.174;6.614;2022-09-12T15:21:29;23.00;95.00
61841;DHT22;47773;53.174;6.614;2022-09-12T15:23:55;23.00;95.10
61841;DHT22;47773;53.174;6.614;2022-09-12T15:26:23;23.00;95.60
61841;DHT22;47773;53.174;6.614;2022-09-12T15:28:51;22.90;96.10
61841;DHT22;47773;53.174;6.614;2022-09-12T15:31:27;22.90;96.10
61841;DHT22;47773;53.174;6.614;2022-09-12T15:33:54;22.90;95.00
61841;DHT22;47773;53.174;6.614;2022-09-12T15:36:21;22.80;96.10
61841;DHT22;47773;53.174;6.614;2022-09-12T15:38:47;22.80;96.30
61841;DHT22;47773;53.174;6.614;2022-09-12T15:41:16;22.80;97.00
61841;DHT22;47773;53.174;6.614;2022-09-12T15:43:44;22.90;97.60
61841;DHT22;47773;53.174;6.614;2022-09-12T15:46:12;22.90;97.60
61841;DHT22;47773;53.174;6.614;2022-09-12T15:48:38;22.90;97.20
61841;DHT22;47773;53.174;6.614;2022-09-12T15:51:14;22.90;97.40
61841;DHT22;47773;53.174;6.614;2022-09-12T15:53:40;22.90;98.10
61841;DHT22;47773;53.174;6.614;2022-09-12T15:56:06;22.90;98.60
61841;DHT22;47773;53.174;6.614;2022-09-12T15:58:32;22.90;98.30
61841;DHT22;47773;53.174;6.614;2022-09-12T16:00:58;22.80;98.30
61841;DHT22;47773;53.174;6.614;2022-09-12T16:03:27;22.90;97.70
61841;DHT22;47773;53.174;6.614;2022-09-12T16:06:00;22.80;96.40
61841;DHT22;47773;53.174;6.614;2022-09-12T16:08:28;22.80;94.80
61841;DHT22;47773;53.174;6.614;2022-09-12T16:10:57;22.80;95.90
61841;DHT22;47773;53.174;6.614;2022-09-12T16:13:23;22.80;95.50
61841;DHT22;47773;53.174;6.614;2022-09-12T16:15:50;22.80;96.00
61841;DHT22;47773;53.174;6.614;2022-09-12T16:18:15;22.70;96.40
61841;DHT22;47773;53.174;6.614;2022-09-12T16:20:41;22.70;96.30
61841;DHT22;47773;53.174;6.614;2022-09-12T16:23:10;22.70;96.20
61841;DHT22;47773;53.174;6.614;2022-09-12T16:25:36;22.70;96.10
61841;DHT22;47773;53.174;6.614;2022-09-12T16:28:03;22.60;96.20
61841;DHT22;47773;53.174;6.614;2022-09-12T16:30:31;22.60;95.80
61841;DHT22;47773;53.174;6.614;2022-09-12T16:32:57;22.50;96.10
61841;DHT22;47773;53.174;6.614;2022-09-12T16:35:22;22.50;96.20
61841;DHT22;47773;53.174;6.614;2022-09-12T16:37:48;22.40;96.50
61841;DHT22;47773;53.174;6.614;2022-09-12T16:40:14;22.40;97.20
61841;DHT22;47773;53.174;6.614;2022-09-12T16:42:42;22.40;97.70
61841;DHT22;47773;53.174;6.614;2022-09-12T16:45:08;22.30;98.10
61841;DHT22;47773;53.174;6.614;2022-09-12T16:47:34;22.30;98.30
61841;DHT22;47773;53.174;6.614;2022-09-12T16:50:00;22.20;99.10
61841;DHT22;47773;53.174;6.614;2022-09-12T16:52:26;22.20;99.10
61841;DHT22;47773;53.174;6.614;2022-09-12T16:54:51;22.10;98.60
61841;DHT22;47773;53.174;6.614;2022-09-12T16:57:17;22.10;98.70
61841;DHT22;47773;53.174;6.614;2022-09-12T16:59:42;22.10;98.60
61841;DHT22;47773;53.174;6.614;2022-09-12T17:02:12;22.10;98.90
61841;DHT22;47773;53.174;6.614;2022-09-12T17:04:39;22.10;99.00
61841;DHT22;47773;53.174;6.614;2022-09-12T17:07:05;22.00;99.00
61841;DHT22;47773;53.174;6.614;2022-09-12T17:09:30;22.00;99.10
61841;DHT22;47773;53.174;6.614;2022-09-12T17:11:56;22.00;99.20
61841;DHT22;47773;53.174;6.614;2022-09-12T17:14:22;21.90;99.60
61841;DHT22;47773;53.174;6.614;2022-09-12T17:16:48;21.90;99.80
61841;DHT22;47773;53.174;6.614;2022-09-12T17:19:23;21.80;99.90
61841;DHT22;47773;53.174;6.614;2022-09-12T17:21:51;21.80;99.90
61841;DHT22;47773;53.174;6.614;2022-09-12T17:24:17;21.80;99.90
61841;DHT22;47773;53.174;6.614;2022-09-12T17:26:43;21.70;99.90
61841;DHT22;47773;53.174;6.614;2022-09-12T17:29:11;21.70;99.90
61841;DHT22;47773;53.174;6.614;2022-09-12T17:31:37;21.60;99.90
61841;DHT22;47773;53.174;6.614;2022-09-12T17:34:02;21.60;99.90
61841;DHT22;47773;53.174;6.614;2022-09-12T17:36:28;21.60;99.90
61841;DHT22;47773;53.174;6.614;2022-09-12T17:38:56;21.50;99.90
61841;DHT22;47773;53.174;6.614;2022-09-12T17:41:25;21.50;99.90
61841;DHT22;47773;53.174;6.614;2022-09-12T17:43:55;21.40;99.90
61841;DHT22;47773;53.174;6.614;2022-09-12T17:46:24;21.40;99.90
61841;DHT22;47773;53.174;6.614;2022-09-12T17:48:51;21.40;99.90
61841;DHT22;47773;53.174;6.614;2022-09-12T17:51:17;21.30;99.90
61841;DHT22;47773;53.174;6.614;2022-09-12T17:53:43;21.30;99.90
61841;DHT22;47773;53.174;6.614;2022-09-12T17:56:09;21.20;99.90
61841;DHT22;47773;53.174;6.614;2022-09-12T17:58:35;21.20;99.90
61841;DHT22;47773;53.174;6.614;2022-09-12T18:01:12;21.10;99.90
61841;DHT22;47773;53.174;6.614;2022-09-12T18:03:58;21.10;99.90
61841;DHT22;47773;53.174;6.614;2022-09-12T18:06:29;21.00;99.90
61841;DHT22;47773;53.174;6.614;2022-09-12T18:08:58;20.90;99.90
61841;DHT22;47773;53.174;6.614;2022-09-12T18:11:25;20.90;99.90